KDSM/DSM METAR and TAF weather

Enter ICAO airport designator
Station Type Date Time Source
KDSM METAR 2018/10/21 02:54 UTC NOAA

KDSM 210254Z 00000KT 10SM CLR 03/M04 A3039 RMK AO2 SLP298 T00281044 51011


Station Type Date Time Source
KDSM Decoded METAR 2018/10/21 02:54 UTC NOAA

DES MOINES INTERNATIONAL, IA, United States (KDSM) 41-32N 93-40W 295M
Oct 20, 2018 - 10:54 PM EDT / 2018.10.21 0254 UTC
Wind: Calm:0
Visibility: 10 mile(s):0
Sky conditions: clear
Temperature: 37.0 F (2.8 C)
Dew Point: 24.1 F (-4.4 C)
Relative Humidity: 59%
Pressure (altimeter): 30.39 in. Hg (1029 hPa)
Pressure tendency: 0.03 inches (1.1 hPa) higher than three hours ago
ob: KDSM 210254Z 00000KT 10SM CLR 03/M04 A3039 RMK AO2 SLP298 T00281044 51011
cycle: 3

Station Type Date Time Source
KDSM TAF 2018/10/20 18:24 UTC NOAA

TAF KDSM 201722Z 2018/2118 34023G33KT P6SM SCT045
FM202300 34011KT P6SM SKC
FM210300 VRB03KT P6SM SKC
FM211300 20006KT P6SM SKC


Example: see airport list